Terminal Aerodrome Forecast
Issued by NWS

Home | Current Version | Previous Version | Text Only | Print | Product List | Glossary On
Versions: 1 2 3 4 5 6 7 8 9 10 11 12 13 14 15 16 17 18 19 20 21
000
FTUS43 KGRR 160000 AAB
TAFJXN
TAF AMD
KJXN 160033Z 1601/1624 34006KT P6SM -RA FEW020 OVC040
     FM160300 34004KT P6SM SCT015 OVC050
     FM160700 33003KT 5SM BR SCT025
     FM161300 29003KT P6SM SCT035=

USA.gov is the U.S. government's official web portal to all federal, state and local government web resources and services.